Aérodrome :
LOGIN :

S'inscrire | Disclaimer

   EN    FR    IT 

 










Légende :    VFR   VFR Marginal   IFR   IFR Intensif   IFR Très Intensif
Visi : 
Plafond : 
>= 8 km
>= 3000ft
5 à 8 km
1000 à 3000 ft
1500m à 5 km
500 à 1000 ft
800 à 1500m
200 à 500 ft
< 800m
< 200 ft
Symboles :   Orages  Brouillard  Fortes neiges  Fortes précipitations  Vent > 20 kt
SIGMETs :   Divers  Orages  Givrage  Turbulence  Onde Orograph.  Cendres Volcan.







- Altitude de l'aérodrome : 586 ft


LIMN - Cameri Air Force Base

DERNIER METAR :
  • 151455Z 14006KT 8000 FEW030 21/11 Q1018 RMK BKN BKN180 VIS MIN 8000 BLU

METARs EXPIRÉS :
  • 151355Z 06007KT 8000 SCT025 21/10 Q1018 RMK SCT VIS MIN 8000 BLU
  • 151255Z 03004KT 310V080 8000 FEW025 21/12 Q1018 RMK BKN SCT070 VIS MIN 8000 BLU

TAF TAF LIMN
Valide du 15 à 12h jusqu'au 15 à 21h UTC


151100Z 1512/1521 07007KT 8000 FEW030 SCT060
PROB40
TEMPO 1518/1521 5000 SHRA BKN030
Pas de NOTAMs connus pour ce terrain.



MET'MAP, la Météo Aéronautique d'un coup d'oeil ! - Copyright ORBIFLY Décembre 2007 - Disclaimer

ORBIFLY MET'MAP TEAM :

Programmation & Développement : Alexandra Zaïnal
Conception & Développement : Baudouin d'Aumeries
Co-Programmation & Développement : Marc-Olivier Méhu
Soutien technique & logistique : Manuel Goepfert

Contact : metmap@orbifly.com




SOURCES & CREDITS :

   NOAA